• Join FlightAware (Why Join?)
  • Login
  • US Flag 
10:46PM EDT


 

Airport Tracker/Info


-or-


 

Live Flight TrackerFlight Track Log ✈ N212JL ✈ 02-Jul-2013 ✈ KSLK - KCDW

Flight Track Log - Related Links

Times and Time Zones

All times are in EDT time to prevent confusion due to time zone crossing. See the N212JL flight status page for this flight to view local times or setup timezone preferences in your user account.

Time Position Orientation Groundspeed Altitude Reporting Facility
EDT Latitude Longitude Course Direction KTS MPH feet Rate Location/Type
12:57PM 44.3083 -74.2011 165° South 272 313 6,000  Level Boston Center
12:58PM 44.2750 -74.1886 165° South 193 222 7,800 1,560 Climbing Boston Center
12:59PM 44.2378 -74.1758 166° South 158 182 9,200 1,260 Climbing Boston Center
01:00PM 44.1942 -74.1600 165° South 153 176 10,400 1,200 Climbing Boston Center
01:01PM 44.1444 -74.1442 167° South 171 197 11,600 1,200 Climbing Boston Center
01:02PM 44.0925 -74.1311 170° South 181 208 12,800 1,200 Climbing Boston Center
01:03PM 44.0428 -74.1181 169° South 181 208 14,000 1,260 Climbing Boston Center
01:04PM 43.9867 -74.1078 172° South 181 208 15,400 1,200 Climbing Boston Center
01:05PM 43.9389 -74.0950 169° South 181 208 16,500 1,020 Climbing Boston Center
01:06PM 43.8911 -74.0822 169° South 181 208 17,500 720 Climbing Boston Center
01:07PM 43.8433 -74.0694 169° South 181 208 18,000 240 Climbing Boston Center
01:08PM 43.7811 -74.0533 169° South 201 231 18,000  Level Boston Center
01:09PM 43.7189 -74.0372 169° South 223 257 18,000  Level Boston Center
01:10PM 43.6525 -74.0211 170° South 239 275 18,000  Level Boston Center
01:11PM 43.5858 -74.0081 172° South 244 281 18,000  Level Boston Center
01:12PM 43.5194 -73.9892 168° South 244 281 18,000  Level Boston Center
01:13PM 43.4531 -73.9731 170° South 244 281 18,000  Level Boston Center
01:14PM 43.3886 -73.9572 170° South 239 275 18,000  Level Boston Center
01:15PM 43.3139 -73.9381 169° South 239 275 18,000 -240 Level Boston Center
01:16PM 43.2536 -73.9253 171° South 239 275 17,600 -900 Descending Boston Center
01:17PM 43.1747 -73.9064 170° South 257 296 16,300 -1,200 Descending Boston Center
01:18PM 43.1081 -73.8906 170° South 257 296 15,200 -1,140 Descending Boston Center
01:19PM 43.0250 -73.8714 170° South 274 315 14,100 -600 Descending Boston Center
01:20PM 42.9647 -73.8558 169° South 268 308 14,100  Level Boston Center
01:21PM 42.8900 -73.8372 170° South 256 295 14,100 -60 Level Boston Center
01:22PM 42.8275 -73.8272 173° South 256 295 14,000 -60 Descending Boston Center
01:23PM 42.7611 -73.8144 172° South 256 295 14,000  Level Boston Center
01:24PM 42.6981 -73.8442 199° South 251 289 14,000  Level Boston Center
01:25PM 42.6392 -73.8881 209° Southwest 241 277 14,000  Level Boston Center
01:26PM 42.5803 -73.9289 207° Southwest 241 277 14,100  Climbing Boston Center
01:27PM 42.5150 -73.9753 208° Southwest 241 277 14,100  Level Boston Center
01:28PM 42.4625 -74.0161 210° Southwest 248 285 14,100  Level Boston Center
01:29PM 42.3972 -74.0650 209° Southwest 248 285 14,100 -60 Level Boston Center
01:30PM 42.3444 -74.1003 206° Southwest 248 285 14,000 -120 Descending Boston Center
01:31PM 42.2792 -74.1489 209° Southwest 248 285 13,900 -60 Descending Boston Center
01:32PM 42.2264 -74.1897 210° Southwest 248 285 13,900  Level Boston Center
01:33PM 42.1631 -74.2356 208° Southwest 248 285 13,900 -420 Level Boston Center
01:34PM 42.1186 -74.2847 219° Southwest 248 285 13,100 -1,020 Descending Boston Center
01:35PM 42.1044 -74.3822 259° West 228 262 11,900 -1,140 Descending Boston Center
01:36PM 42.0925 -74.4686 259° West 241 277 10,900 -660 Descending Boston Center
01:37PM 42.0789 -74.5297 253° West 215 247 10,600 -600 Descending Boston Center
01:38PM 42.0267 -74.5333 183° South 170 196 9,700 -1,080 Descending Boston Center
01:39PM 41.9661 -74.5369 183° South 197 227 8,500 -1,200 Descending Boston Center
01:40PM 41.9203 -74.5439 186° South 192 221 7,400 -780 Descending Boston Center
01:41PM 41.8722 -74.5478 183° South 186 214 7,000 -240 Descending Boston Center
01:42PM 41.8158 -74.5542 185° South 186 214 7,000  Level Boston Center
01:43PM 41.7678 -74.5556 181° South 193 222 7,000  Level Boston Center
01:44PM 41.7094 -74.5647 187° South 198 228 7,000  Level Boston Center
01:45PM 41.6614 -74.5686 183° South 203 234 7,000  Level Boston Center
01:46PM 41.5967 -74.5747 184° South 203 234 7,000  Level Boston Center
01:47PM 41.5464 -74.5842 188° South 208 239 7,000 -540 Level Boston Center
01:48PM 41.5036 -74.6439 226° Southwest 200 230 6,000 -540 Descending Boston Center
01:49PM 41.4533 -74.6531 188° South 200 230 6,000  Level Boston Center
01:51PM 41.3667 -74.6500 178° South 197 227 6,000  Level New York TRACON
01:52PM 41.3333 -74.6000 132° Southeast 171 197 6,000 -540 Level New York TRACON
01:53PM 41.3000 -74.5500 132° Southeast 206 237 5,000 -660 Descending New York TRACON
01:54PM 41.2667 -74.4833 124° Southeast 197 227 4,700 -540 Descending New York TRACON
01:55PM 41.2333 -74.4333 132° Southeast 195 224 4,000 -360 Descending New York TRACON
01:56PM 41.2167 -74.3833 114° Southeast 195 224 4,000 -540 Level New York TRACON
01:57PM 41.1833 -74.3167 124° Southeast 181 208 3,000 -540 Descending New York TRACON
01:58PM 41.1500 -74.2667 132° Southeast 181 208 3,000  Level New York TRACON
01:59PM 41.1167 -74.2167 131° Southeast 177 204 3,000  Level New York TRACON
02:00PM 41.0833 -74.1833 143° Southeast 148 170 3,000  Level New York TRACON
02:01PM 41.0500 -74.1667 159° South 134 154 3,000 -300 Level New York TRACON
02:02PM 41.0167 -74.1833 201° Southwest 134 154 2,400 -480 Descending New York TRACON
02:03PM 40.9833 -74.2000 201° Southwest 130 150 2,000 -180 Descending New York TRACON
02:04PM 40.9500 -74.2167 201° Southwest 126 145 2,100 -300 Climbing New York TRACON
02:05PM 40.9333 -74.2500 237° Southwest 110 127 1,500 -600 Descending New York TRACON
02:06PM 40.9000 -74.2667 201° Southwest 115 132 1,000 -540 Descending New York TRACON